sensor_id;sensor_type;location;lat;lon;timestamp;P1;durP1;ratioP1;P2;durP2;ratioP2
76284;SDS011;65096;50.998;7.098;2022-12-18T00:00:08;12.38;;;6.70;;
76284;SDS011;65096;50.998;7.098;2022-12-18T00:02:35;14.25;;;6.97;;
76284;SDS011;65096;50.998;7.098;2022-12-18T00:05:02;12.75;;;6.50;;
76284;SDS011;65096;50.998;7.098;2022-12-18T00:07:30;15.43;;;7.63;;
76284;SDS011;65096;50.998;7.098;2022-12-18T00:09:57;15.75;;;7.15;;
76284;SDS011;65096;50.998;7.098;2022-12-18T00:12:23;12.40;;;6.35;;
76284;SDS011;65096;50.998;7.098;2022-12-18T00:14:51;12.10;;;5.65;;
76284;SDS011;65096;50.998;7.098;2022-12-18T00:17:18;13.85;;;6.70;;
76284;SDS011;65096;50.998;7.098;2022-12-18T00:22:11;13.48;;;6.30;;
76284;SDS011;65096;50.998;7.098;2022-12-18T00:27:06;13.45;;;6.15;;
76284;SDS011;65096;50.998;7.098;2022-12-18T00:29:32;13.88;;;6.60;;
76284;SDS011;65096;50.998;7.098;2022-12-18T00:31:59;12.45;;;6.40;;
76284;SDS011;65096;50.998;7.098;2022-12-18T00:34:26;13.15;;;7.05;;
76284;SDS011;65096;50.998;7.098;2022-12-18T00:36:52;12.18;;;7.38;;
76284;SDS011;65096;50.998;7.098;2022-12-18T00:39:19;14.95;;;7.22;;
76284;SDS011;65096;50.998;7.098;2022-12-18T00:41:47;13.45;;;7.05;;
76284;SDS011;65096;50.998;7.098;2022-12-18T00:44:31;14.52;;;6.68;;
76284;SDS011;65096;50.998;7.098;2022-12-18T00:46:58;14.07;;;6.95;;
76284;SDS011;65096;50.998;7.098;2022-12-18T00:51:51;11.70;;;5.45;;
76284;SDS011;65096;50.998;7.098;2022-12-18T00:54:18;13.68;;;6.88;;
76284;SDS011;65096;50.998;7.098;2022-12-18T00:56:45;14.27;;;7.00;;
76284;SDS011;65096;50.998;7.098;2022-12-18T00:59:13;12.80;;;6.50;;
76284;SDS011;65096;50.998;7.098;2022-12-18T01:01:39;13.43;;;7.15;;
76284;SDS011;65096;50.998;7.098;2022-12-18T01:04:06;13.73;;;6.35;;
76284;SDS011;65096;50.998;7.098;2022-12-18T01:06:33;14.50;;;6.85;;
76284;SDS011;65096;50.998;7.098;2022-12-18T01:08:59;12.35;;;6.32;;
76284;SDS011;65096;50.998;7.098;2022-12-18T01:13:53;12.90;;;6.10;;
76284;SDS011;65096;50.998;7.098;2022-12-18T01:16:22;14.45;;;6.97;;
76284;SDS011;65096;50.998;7.098;2022-12-18T01:18:51;13.30;;;5.95;;
76284;SDS011;65096;50.998;7.098;2022-12-18T01:21:19;12.50;;;6.68;;
76284;SDS011;65096;50.998;7.098;2022-12-18T01:23:47;12.75;;;6.57;;
76284;SDS011;65096;50.998;7.098;2022-12-18T01:26:17;12.70;;;5.97;;
76284;SDS011;65096;50.998;7.098;2022-12-18T01:28:44;14.85;;;6.65;;
76284;SDS011;65096;50.998;7.098;2022-12-18T01:31:12;13.30;;;5.57;;
76284;SDS011;65096;50.998;7.098;2022-12-18T01:33:41;15.80;;;7.18;;
76284;SDS011;65096;50.998;7.098;2022-12-18T01:36:08;13.90;;;6.32;;
76284;SDS011;65096;50.998;7.098;2022-12-18T01:38:40;11.98;;;5.57;;
76284;SDS011;65096;50.998;7.098;2022-12-18T01:41:08;11.77;;;5.78;;
76284;SDS011;65096;50.998;7.098;2022-12-18T01:43:51;12.55;;;5.80;;
76284;SDS011;65096;50.998;7.098;2022-12-18T01:46:20;9.80;;;4.78;;
76284;SDS011;65096;50.998;7.098;2022-12-18T01:48:50;14.13;;;6.25;;
76284;SDS011;65096;50.998;7.098;2022-12-18T01:51:19;13.13;;;6.22;;
76284;SDS011;65096;50.998;7.098;2022-12-18T01:53:46;14.95;;;6.68;;
76284;SDS011;65096;50.998;7.098;2022-12-18T01:56:14;12.45;;;6.22;;
76284;SDS011;65096;50.998;7.098;2022-12-18T01:58:45;14.68;;;6.72;;
76284;SDS011;65096;50.998;7.098;2022-12-18T02:01:16;11.70;;;5.55;;
76284;SDS011;65096;50.998;7.098;2022-12-18T02:03:44;13.55;;;5.90;;
76284;SDS011;65096;50.998;7.098;2022-12-18T02:06:14;11.30;;;5.90;;
76284;SDS011;65096;50.998;7.098;2022-12-18T02:08:45;12.20;;;5.75;;
76284;SDS011;65096;50.998;7.098;2022-12-18T02:11:22;12.90;;;5.57;;
76284;SDS011;65096;50.998;7.098;2022-12-18T02:14:00;11.20;;;5.35;;
76284;SDS011;65096;50.998;7.098;2022-12-18T02:16:34;11.10;;;5.38;;
76284;SDS011;65096;50.998;7.098;2022-12-18T02:19:08;12.65;;;5.82;;
76284;SDS011;65096;50.998;7.098;2022-12-18T02:21:49;11.60;;;5.95;;
76284;SDS011;65096;50.998;7.098;2022-12-18T02:24:26;13.13;;;5.65;;
76284;SDS011;65096;50.998;7.098;2022-12-18T02:26:58;12.90;;;6.00;;
76284;SDS011;65096;50.998;7.098;2022-12-18T02:29:29;11.65;;;5.93;;
76284;SDS011;65096;50.998;7.098;2022-12-18T02:32:01;11.45;;;5.00;;
76284;SDS011;65096;50.998;7.098;2022-12-18T02:34:32;13.27;;;6.35;;
76284;SDS011;65096;50.998;7.098;2022-12-18T02:37:04;13.02;;;5.47;;
76284;SDS011;65096;50.998;7.098;2022-12-18T02:39:35;11.40;;;5.47;;
76284;SDS011;65096;50.998;7.098;2022-12-18T02:42:05;11.38;;;5.32;;
76284;SDS011;65096;50.998;7.098;2022-12-18T02:44:33;10.77;;;5.88;;
76284;SDS011;65096;50.998;7.098;2022-12-18T02:47:00;13.27;;;6.10;;
76284;SDS011;65096;50.998;7.098;2022-12-18T02:49:30;11.82;;;5.70;;
76284;SDS011;65096;50.998;7.098;2022-12-18T02:52:05;12.75;;;5.05;;
76284;SDS011;65096;50.998;7.098;2022-12-18T02:54:43;11.40;;;5.78;;
76284;SDS011;65096;50.998;7.098;2022-12-18T02:57:20;10.82;;;5.47;;
76284;SDS011;65096;50.998;7.098;2022-12-18T02:59:56;11.82;;;6.00;;
76284;SDS011;65096;50.998;7.098;2022-12-18T03:02:29;11.50;;;5.30;;
76284;SDS011;65096;50.998;7.098;2022-12-18T03:05:04;11.23;;;5.57;;
76284;SDS011;65096;50.998;7.098;2022-12-18T03:07:38;11.73;;;5.60;;
76284;SDS011;65096;50.998;7.098;2022-12-18T03:10:09;10.55;;;5.00;;
76284;SDS011;65096;50.998;7.098;2022-12-18T03:12:42;11.23;;;5.70;;
76284;SDS011;65096;50.998;7.098;2022-12-18T03:15:13;11.35;;;5.22;;
76284;SDS011;65096;50.998;7.098;2022-12-18T03:17:44;11.98;;;6.25;;
76284;SDS011;65096;50.998;7.098;2022-12-18T03:20:16;12.25;;;5.50;;
76284;SDS011;65096;50.998;7.098;2022-12-18T03:22:47;8.65;;;4.18;;
76284;SDS011;65096;50.998;7.098;2022-12-18T03:25:17;11.10;;;5.07;;
76284;SDS011;65096;50.998;7.098;2022-12-18T03:27:47;10.32;;;4.82;;
76284;SDS011;65096;50.998;7.098;2022-12-18T03:30:17;11.38;;;5.15;;
76284;SDS011;65096;50.998;7.098;2022-12-18T03:32:46;10.85;;;5.05;;
76284;SDS011;65096;50.998;7.098;2022-12-18T03:35:16;11.63;;;5.55;;
76284;SDS011;65096;50.998;7.098;2022-12-18T03:37:47;13.35;;;6.15;;
76284;SDS011;65096;50.998;7.098;2022-12-18T03:40:15;10.80;;;5.55;;
76284;SDS011;65096;50.998;7.098;2022-12-18T03:42:44;10.00;;;5.35;;
76284;SDS011;65096;50.998;7.098;2022-12-18T03:45:19;10.82;;;4.55;;
76284;SDS011;65096;50.998;7.098;2022-12-18T03:47:53;9.75;;;4.15;;
76284;SDS011;65096;50.998;7.098;2022-12-18T03:50:29;12.20;;;5.35;;
76284;SDS011;65096;50.998;7.098;2022-12-18T03:53:06;10.27;;;4.75;;
76284;SDS011;65096;50.998;7.098;2022-12-18T03:55:40;7.82;;;3.90;;
76284;SDS011;65096;50.998;7.098;2022-12-18T03:58:10;13.40;;;5.00;;
76284;SDS011;65096;50.998;7.098;2022-12-18T04:00:42;12.00;;;5.40;;
76284;SDS011;65096;50.998;7.098;2022-12-18T04:03:09;10.05;;;4.80;;
76284;SDS011;65096;50.998;7.098;2022-12-18T04:05:38;9.52;;;3.78;;
76284;SDS011;65096;50.998;7.098;2022-12-18T04:08:06;9.40;;;4.80;;
76284;SDS011;65096;50.998;7.098;2022-12-18T04:13:00;9.60;;;4.25;;
76284;SDS011;65096;50.998;7.098;2022-12-18T04:15:28;9.93;;;4.30;;
76284;SDS011;65096;50.998;7.098;2022-12-18T04:17:54;7.88;;;4.30;;
76284;SDS011;65096;50.998;7.098;2022-12-18T04:20:21;10.20;;;4.60;;
76284;SDS011;65096;50.998;7.098;2022-12-18T04:22:48;9.82;;;4.30;;
76284;SDS011;65096;50.998;7.098;2022-12-18T04:25:14;10.75;;;4.50;;
76284;SDS011;65096;50.998;7.098;2022-12-18T04:30:08;8.65;;;4.07;;
76284;SDS011;65096;50.998;7.098;2022-12-18T04:32:36;10.55;;;4.32;;
76284;SDS011;65096;50.998;7.098;2022-12-18T04:35:04;9.68;;;4.53;;
76284;SDS011;65096;50.998;7.098;2022-12-18T04:37:35;10.48;;;4.72;;
76284;SDS011;65096;50.998;7.098;2022-12-18T04:40:02;9.73;;;4.50;;
76284;SDS011;65096;50.998;7.098;2022-12-18T04:42:29;11.98;;;5.18;;
76284;SDS011;65096;50.998;7.098;2022-12-18T04:44:56;9.02;;;4.13;;
76284;SDS011;65096;50.998;7.098;2022-12-18T04:49:50;10.55;;;4.50;;
76284;SDS011;65096;50.998;7.098;2022-12-18T04:52:17;9.30;;;4.30;;
76284;SDS011;65096;50.998;7.098;2022-12-18T04:54:43;11.57;;;5.35;;
76284;SDS011;65096;50.998;7.098;2022-12-18T04:57:10;11.80;;;4.63;;
76284;SDS011;65096;50.998;7.098;2022-12-18T04:59:37;10.70;;;4.88;;
76284;SDS011;65096;50.998;7.098;2022-12-18T05:04:30;11.52;;;4.30;;
76284;SDS011;65096;50.998;7.098;2022-12-18T05:06:58;12.70;;;5.07;;
76284;SDS011;65096;50.998;7.098;2022-12-18T05:09:25;10.88;;;4.68;;
76284;SDS011;65096;50.998;7.098;2022-12-18T05:11:51;10.20;;;4.70;;
76284;SDS011;65096;50.998;7.098;2022-12-18T05:14:18;9.05;;;4.18;;
76284;SDS011;65096;50.998;7.098;2022-12-18T05:16:45;10.82;;;4.78;;
76284;SDS011;65096;50.998;7.098;2022-12-18T05:19:12;11.02;;;4.88;;
76284;SDS011;65096;50.998;7.098;2022-12-18T05:21:39;10.85;;;5.32;;
76284;SDS011;65096;50.998;7.098;2022-12-18T05:24:07;9.90;;;4.47;;
76284;SDS011;65096;50.998;7.098;2022-12-18T05:26:34;11.25;;;4.70;;
76284;SDS011;65096;50.998;7.098;2022-12-18T05:29:00;12.05;;;5.05;;
76284;SDS011;65096;50.998;7.098;2022-12-18T05:31:27;10.48;;;4.55;;
76284;SDS011;65096;50.998;7.098;2022-12-18T05:33:54;9.88;;;4.13;;
76284;SDS011;65096;50.998;7.098;2022-12-18T05:38:47;11.65;;;4.85;;
76284;SDS011;65096;50.998;7.098;2022-12-18T05:41:15;12.93;;;5.18;;
76284;SDS011;65096;50.998;7.098;2022-12-18T05:43:42;12.68;;;5.75;;
76284;SDS011;65096;50.998;7.098;2022-12-18T05:48:37;10.05;;;4.90;;
76284;SDS011;65096;50.998;7.098;2022-12-18T05:51:05;11.75;;;5.68;;
76284;SDS011;65096;50.998;7.098;2022-12-18T05:53:33;10.55;;;4.97;;
76284;SDS011;65096;50.998;7.098;2022-12-18T05:56:02;10.63;;;4.75;;
76284;SDS011;65096;50.998;7.098;2022-12-18T05:58:30;11.27;;;5.10;;
76284;SDS011;65096;50.998;7.098;2022-12-18T06:00:58;10.27;;;4.90;;
76284;SDS011;65096;50.998;7.098;2022-12-18T06:03:33;11.90;;;5.47;;
76284;SDS011;65096;50.998;7.098;2022-12-18T06:05:59;12.27;;;5.38;;
76284;SDS011;65096;50.998;7.098;2022-12-18T06:08:26;13.07;;;5.53;;
76284;SDS011;65096;50.998;7.098;2022-12-18T06:13:20;11.02;;;5.03;;
76284;SDS011;65096;50.998;7.098;2022-12-18T06:15:48;11.35;;;4.88;;
76284;SDS011;65096;50.998;7.098;2022-12-18T06:18:15;11.05;;;5.50;;
76284;SDS011;65096;50.998;7.098;2022-12-18T06:20:42;12.00;;;5.15;;
76284;SDS011;65096;50.998;7.098;2022-12-18T06:23:08;11.63;;;5.55;;
76284;SDS011;65096;50.998;7.098;2022-12-18T06:28:03;11.20;;;4.88;;
76284;SDS011;65096;50.998;7.098;2022-12-18T06:30:30;14.95;;;5.95;;
76284;SDS011;65096;50.998;7.098;2022-12-18T06:32:58;11.50;;;5.57;;
76284;SDS011;65096;50.998;7.098;2022-12-18T06:35:25;10.82;;;5.20;;
76284;SDS011;65096;50.998;7.098;2022-12-18T06:37:51;11.52;;;5.22;;
76284;SDS011;65096;50.998;7.098;2022-12-18T06:40:18;11.13;;;5.53;;
76284;SDS011;65096;50.998;7.098;2022-12-18T06:42:45;12.95;;;5.90;;
76284;SDS011;65096;50.998;7.098;2022-12-18T06:45:11;11.55;;;5.78;;
76284;SDS011;65096;50.998;7.098;2022-12-18T06:47:38;12.20;;;5.72;;
76284;SDS011;65096;50.998;7.098;2022-12-18T06:50:07;12.93;;;5.88;;
76284;SDS011;65096;50.998;7.098;2022-12-18T06:52:33;12.40;;;5.63;;
76284;SDS011;65096;50.998;7.098;2022-12-18T06:55:02;11.25;;;5.57;;
76284;SDS011;65096;50.998;7.098;2022-12-18T06:57:29;12.57;;;5.78;;
76284;SDS011;65096;50.998;7.098;2022-12-18T07:02:22;15.10;;;6.35;;
76284;SDS011;65096;50.998;7.098;2022-12-18T07:07:18;12.63;;;5.93;;
76284;SDS011;65096;50.998;7.098;2022-12-18T07:09:44;14.35;;;6.28;;
76284;SDS011;65096;50.998;7.098;2022-12-18T07:12:11;12.95;;;6.82;;
76284;SDS011;65096;50.998;7.098;2022-12-18T07:14:38;12.15;;;5.43;;
76284;SDS011;65096;50.998;7.098;2022-12-18T07:17:04;15.93;;;7.18;;
76284;SDS011;65096;50.998;7.098;2022-12-18T07:19:31;12.70;;;5.90;;
76284;SDS011;65096;50.998;7.098;2022-12-18T07:24:26;12.98;;;5.68;;
76284;SDS011;65096;50.998;7.098;2022-12-18T07:26:52;13.48;;;6.38;;
76284;SDS011;65096;50.998;7.098;2022-12-18T07:31:46;10.98;;;4.97;;
76284;SDS011;65096;50.998;7.098;2022-12-18T07:36:40;13.73;;;5.97;;
76284;SDS011;65096;50.998;7.098;2022-12-18T07:39:07;13.93;;;6.47;;
76284;SDS011;65096;50.998;7.098;2022-12-18T07:41:35;13.20;;;6.05;;
76284;SDS011;65096;50.998;7.098;2022-12-18T07:44:08;13.07;;;5.97;;
76284;SDS011;65096;50.998;7.098;2022-12-18T07:46:35;14.38;;;6.30;;
76284;SDS011;65096;50.998;7.098;2022-12-18T07:49:02;13.73;;;6.07;;
76284;SDS011;65096;50.998;7.098;2022-12-18T07:51:29;12.73;;;6.22;;
76284;SDS011;65096;50.998;7.098;2022-12-18T07:53:56;14.63;;;5.85;;
76284;SDS011;65096;50.998;7.098;2022-12-18T07:56:23;11.35;;;5.00;;
76284;SDS011;65096;50.998;7.098;2022-12-18T07:58:51;13.13;;;5.53;;
76284;SDS011;65096;50.998;7.098;2022-12-18T08:01:17;12.68;;;6.28;;
76284;SDS011;65096;50.998;7.098;2022-12-18T08:06:10;12.50;;;6.18;;
76284;SDS011;65096;50.998;7.098;2022-12-18T08:08:37;12.93;;;6.40;;
76284;SDS011;65096;50.998;7.098;2022-12-18T08:11:05;14.98;;;6.63;;
76284;SDS011;65096;50.998;7.098;2022-12-18T08:16:00;12.40;;;5.82;;
76284;SDS011;65096;50.998;7.098;2022-12-18T08:18:29;13.40;;;5.50;;
76284;SDS011;65096;50.998;7.098;2022-12-18T08:20:58;15.48;;;6.47;;
76284;SDS011;65096;50.998;7.098;2022-12-18T08:23:34;14.60;;;7.07;;
76284;SDS011;65096;50.998;7.098;2022-12-18T08:28:27;12.52;;;6.22;;
76284;SDS011;65096;50.998;7.098;2022-12-18T08:30:54;14.68;;;7.40;;
76284;SDS011;65096;50.998;7.098;2022-12-18T08:33:22;13.05;;;6.90;;
76284;SDS011;65096;50.998;7.098;2022-12-18T08:35:49;14.45;;;6.15;;
76284;SDS011;65096;50.998;7.098;2022-12-18T08:40:42;12.80;;;5.57;;
76284;SDS011;65096;50.998;7.098;2022-12-18T08:45:53;14.15;;;6.40;;
76284;SDS011;65096;50.998;7.098;2022-12-18T08:50:54;14.25;;;6.03;;
76284;SDS011;65096;50.998;7.098;2022-12-18T08:53:21;12.32;;;5.60;;
76284;SDS011;65096;50.998;7.098;2022-12-18T08:55:48;10.20;;;4.65;;
76284;SDS011;65096;50.998;7.098;2022-12-18T08:58:14;16.13;;;6.55;;
76284;SDS011;65096;50.998;7.098;2022-12-18T09:03:10;13.15;;;5.47;;
76284;SDS011;65096;50.998;7.098;2022-12-18T09:05:37;12.02;;;5.43;;
76284;SDS011;65096;50.998;7.098;2022-12-18T09:10:32;17.10;;;7.10;;
76284;SDS011;65096;50.998;7.098;2022-12-18T09:12:59;14.93;;;7.07;;
76284;SDS011;65096;50.998;7.098;2022-12-18T09:15:26;14.50;;;7.00;;
76284;SDS011;65096;50.998;7.098;2022-12-18T09:20:19;10.68;;;5.38;;
76284;SDS011;65096;50.998;7.098;2022-12-18T09:25:14;13.93;;;6.25;;
76284;SDS011;65096;50.998;7.098;2022-12-18T09:27:40;14.50;;;6.63;;
76284;SDS011;65096;50.998;7.098;2022-12-18T09:30:08;11.93;;;5.82;;
76284;SDS011;65096;50.998;7.098;2022-12-18T09:32:35;13.95;;;6.35;;
76284;SDS011;65096;50.998;7.098;2022-12-18T09:37:28;15.43;;;6.35;;
76284;SDS011;65096;50.998;7.098;2022-12-18T09:42:23;10.02;;;4.75;;
76284;SDS011;65096;50.998;7.098;2022-12-18T09:44:50;11.57;;;5.40;;
76284;SDS011;65096;50.998;7.098;2022-12-18T09:47:20;11.95;;;5.68;;
76284;SDS011;65096;50.998;7.098;2022-12-18T09:49:50;15.95;;;7.57;;
76284;SDS011;65096;50.998;7.098;2022-12-18T09:52:21;10.45;;;4.82;;
76284;SDS011;65096;50.998;7.098;2022-12-18T09:54:53;8.77;;;4.28;;
76284;SDS011;65096;50.998;7.098;2022-12-18T09:57:26;15.60;;;6.95;;
76284;SDS011;65096;50.998;7.098;2022-12-18T09:59:54;15.73;;;7.22;;
76284;SDS011;65096;50.998;7.098;2022-12-18T10:02:23;14.85;;;5.90;;
76284;SDS011;65096;50.998;7.098;2022-12-18T10:05:00;10.52;;;5.53;;
76284;SDS011;65096;50.998;7.098;2022-12-18T10:07:33;11.45;;;5.70;;
76284;SDS011;65096;50.998;7.098;2022-12-18T10:10:10;11.18;;;5.97;;
76284;SDS011;65096;50.998;7.098;2022-12-18T10:12:48;13.18;;;6.75;;
76284;SDS011;65096;50.998;7.098;2022-12-18T10:15:25;10.50;;;5.65;;
76284;SDS011;65096;50.998;7.098;2022-12-18T10:18:00;12.73;;;6.68;;
76284;SDS011;65096;50.998;7.098;2022-12-18T10:20:38;13.80;;;6.43;;
76284;SDS011;65096;50.998;7.098;2022-12-18T10:23:11;11.88;;;5.15;;
76284;SDS011;65096;50.998;7.098;2022-12-18T10:25:48;13.63;;;6.63;;
76284;SDS011;65096;50.998;7.098;2022-12-18T10:28:22;12.68;;;5.53;;
76284;SDS011;65096;50.998;7.098;2022-12-18T10:30:50;12.45;;;5.32;;
76284;SDS011;65096;50.998;7.098;2022-12-18T10:33:18;10.20;;;5.18;;
76284;SDS011;65096;50.998;7.098;2022-12-18T10:35:46;11.02;;;5.40;;
76284;SDS011;65096;50.998;7.098;2022-12-18T10:38:21;11.93;;;5.80;;
76284;SDS011;65096;50.998;7.098;2022-12-18T10:40:51;10.15;;;4.82;;
76284;SDS011;65096;50.998;7.098;2022-12-18T10:43:20;12.13;;;5.40;;
76284;SDS011;65096;50.998;7.098;2022-12-18T10:46:00;12.05;;;5.30;;
76284;SDS011;65096;50.998;7.098;2022-12-18T10:48:52;14.32;;;6.63;;
76284;SDS011;65096;50.998;7.098;2022-12-18T10:51:22;10.32;;;4.68;;
76284;SDS011;65096;50.998;7.098;2022-12-18T10:53:51;10.48;;;5.13;;
76284;SDS011;65096;50.998;7.098;2022-12-18T10:56:21;11.93;;;5.53;;
76284;SDS011;65096;50.998;7.098;2022-12-18T10:58:57;13.07;;;5.95;;
76284;SDS011;65096;50.998;7.098;2022-12-18T11:01:25;9.88;;;5.15;;
76284;SDS011;65096;50.998;7.098;2022-12-18T11:04:00;11.80;;;5.38;;
76284;SDS011;65096;50.998;7.098;2022-12-18T11:06:28;7.75;;;3.80;;
76284;SDS011;65096;50.998;7.098;2022-12-18T11:08:59;11.48;;;5.30;;
76284;SDS011;65096;50.998;7.098;2022-12-18T11:11:27;11.90;;;6.80;;
76284;SDS011;65096;50.998;7.098;2022-12-18T11:14:01;11.45;;;5.00;;
76284;SDS011;65096;50.998;7.098;2022-12-18T11:16:30;11.90;;;5.45;;
76284;SDS011;65096;50.998;7.098;2022-12-18T11:19:09;12.57;;;5.53;;
76284;SDS011;65096;50.998;7.098;2022-12-18T11:21:49;14.70;;;6.97;;
76284;SDS011;65096;50.998;7.098;2022-12-18T11:24:19;11.63;;;6.35;;
76284;SDS011;65096;50.998;7.098;2022-12-18T11:26:53;11.98;;;5.80;;
76284;SDS011;65096;50.998;7.098;2022-12-18T11:29:24;14.10;;;7.20;;
76284;SDS011;65096;50.998;7.098;2022-12-18T11:32:09;15.55;;;8.07;;
76284;SDS011;65096;50.998;7.098;2022-12-18T11:34:57;12.88;;;6.13;;
76284;SDS011;65096;50.998;7.098;2022-12-18T11:37:29;14.85;;;7.07;;
76284;SDS011;65096;50.998;7.098;2022-12-18T11:39:58;12.52;;;5.78;;
76284;SDS011;65096;50.998;7.098;2022-12-18T11:42:32;11.57;;;5.65;;
76284;SDS011;65096;50.998;7.098;2022-12-18T11:45:14;14.85;;;7.93;;
76284;SDS011;65096;50.998;7.098;2022-12-18T11:47:52;12.95;;;6.53;;
76284;SDS011;65096;50.998;7.098;2022-12-18T11:50:26;15.35;;;7.68;;
76284;SDS011;65096;50.998;7.098;2022-12-18T11:52:55;12.43;;;5.47;;
76284;SDS011;65096;50.998;7.098;2022-12-18T11:55:24;14.88;;;7.40;;
76284;SDS011;65096;50.998;7.098;2022-12-18T11:57:58;20.55;;;9.13;;
76284;SDS011;65096;50.998;7.098;2022-12-18T12:00:35;15.23;;;8.05;;
76284;SDS011;65096;50.998;7.098;2022-12-18T12:03:35;16.33;;;9.00;;
76284;SDS011;65096;50.998;7.098;2022-12-18T12:06:13;16.95;;;8.45;;
76284;SDS011;65096;50.998;7.098;2022-12-18T12:08:48;15.63;;;7.95;;
76284;SDS011;65096;50.998;7.098;2022-12-18T12:11:28;18.52;;;8.55;;
76284;SDS011;65096;50.998;7.098;2022-12-18T12:14:12;12.55;;;6.88;;
76284;SDS011;65096;50.998;7.098;2022-12-18T12:16:53;12.52;;;6.28;;
76284;SDS011;65096;50.998;7.098;2022-12-18T12:19:34;15.15;;;8.00;;
76284;SDS011;65096;50.998;7.098;2022-12-18T12:22:10;13.85;;;6.10;;
76284;SDS011;65096;50.998;7.098;2022-12-18T12:24:49;16.23;;;8.20;;
76284;SDS011;65096;50.998;7.098;2022-12-18T12:27:26;13.32;;;6.65;;
76284;SDS011;65096;50.998;7.098;2022-12-18T12:30:00;18.20;;;9.25;;
76284;SDS011;65096;50.998;7.098;2022-12-18T12:32:40;15.77;;;8.07;;
76284;SDS011;65096;50.998;7.098;2022-12-18T12:35:19;14.95;;;7.50;;
76284;SDS011;65096;50.998;7.098;2022-12-18T12:37:57;16.98;;;7.65;;
76284;SDS011;65096;50.998;7.098;2022-12-18T12:40:35;15.13;;;7.43;;
76284;SDS011;65096;50.998;7.098;2022-12-18T12:43:10;18.35;;;8.32;;
76284;SDS011;65096;50.998;7.098;2022-12-18T12:45:47;18.83;;;8.95;;
76284;SDS011;65096;50.998;7.098;2022-12-18T12:48:27;13.75;;;6.78;;
76284;SDS011;65096;50.998;7.098;2022-12-18T12:51:01;16.55;;;9.07;;
76284;SDS011;65096;50.998;7.098;2022-12-18T12:53:35;18.45;;;9.07;;
76284;SDS011;65096;50.998;7.098;2022-12-18T12:56:04;19.55;;;9.60;;
76284;SDS011;65096;50.998;7.098;2022-12-18T12:58:33;16.67;;;8.20;;
76284;SDS011;65096;50.998;7.098;2022-12-18T13:01:08;19.38;;;9.45;;
76284;SDS011;65096;50.998;7.098;2022-12-18T13:03:43;18.90;;;8.90;;
76284;SDS011;65096;50.998;7.098;2022-12-18T13:06:19;18.80;;;9.93;;
76284;SDS011;65096;50.998;7.098;2022-12-18T13:08:57;18.13;;;8.85;;
76284;SDS011;65096;50.998;7.098;2022-12-18T13:11:29;12.80;;;6.38;;
76284;SDS011;65096;50.998;7.098;2022-12-18T13:14:26;20.17;;;8.50;;
76284;SDS011;65096;50.998;7.098;2022-12-18T13:22:32;19.65;;;9.55;;
76284;SDS011;65096;50.998;7.098;2022-12-18T13:25:01;13.68;;;6.55;;
76284;SDS011;65096;50.998;7.098;2022-12-18T13:27:55;17.45;;;7.35;;
76284;SDS011;65096;50.998;7.098;2022-12-18T13:30:43;19.30;;;9.40;;
76284;SDS011;65096;50.998;7.098;2022-12-18T13:36:14;16.00;;;7.28;;
76284;SDS011;65096;50.998;7.098;2022-12-18T13:39:09;16.60;;;8.27;;
76284;SDS011;65096;50.998;7.098;2022-12-18T13:48:05;17.90;;;9.00;;
76284;SDS011;65096;50.998;7.098;2022-12-18T13:50:40;19.98;;;10.98;;
76284;SDS011;65096;50.998;7.098;2022-12-18T13:53:12;21.15;;;10.20;;
76284;SDS011;65096;50.998;7.098;2022-12-18T13:55:47;18.73;;;9.55;;
76284;SDS011;65096;50.998;7.098;2022-12-18T13:58:15;19.15;;;10.65;;
76284;SDS011;65096;50.998;7.098;2022-12-18T14:00:42;17.83;;;8.63;;
76284;SDS011;65096;50.998;7.098;2022-12-18T14:03:15;20.77;;;11.20;;
76284;SDS011;65096;50.998;7.098;2022-12-18T14:05:45;19.77;;;9.48;;
76284;SDS011;65096;50.998;7.098;2022-12-18T14:08:19;19.00;;;9.27;;
76284;SDS011;65096;50.998;7.098;2022-12-18T14:10:47;15.75;;;7.40;;
76284;SDS011;65096;50.998;7.098;2022-12-18T14:13:17;21.80;;;10.75;;
76284;SDS011;65096;50.998;7.098;2022-12-18T14:15:48;16.15;;;7.57;;
76284;SDS011;65096;50.998;7.098;2022-12-18T14:18:19;15.98;;;8.45;;
76284;SDS011;65096;50.998;7.098;2022-12-18T14:20:49;17.55;;;8.73;;
76284;SDS011;65096;50.998;7.098;2022-12-18T14:23:32;19.58;;;10.27;;
76284;SDS011;65096;50.998;7.098;2022-12-18T14:26:01;15.80;;;8.65;;
76284;SDS011;65096;50.998;7.098;2022-12-18T14:28:28;22.00;;;10.55;;
76284;SDS011;65096;50.998;7.098;2022-12-18T14:30:55;22.63;;;11.18;;
76284;SDS011;65096;50.998;7.098;2022-12-18T14:33:23;21.92;;;10.70;;
76284;SDS011;65096;50.998;7.098;2022-12-18T14:35:53;21.90;;;11.27;;
76284;SDS011;65096;50.998;7.098;2022-12-18T14:38:23;13.82;;;7.35;;
76284;SDS011;65096;50.998;7.098;2022-12-18T14:40:53;20.27;;;10.90;;
76284;SDS011;65096;50.998;7.098;2022-12-18T14:43:21;21.73;;;10.30;;
76284;SDS011;65096;50.998;7.098;2022-12-18T14:45:48;24.05;;;12.52;;
76284;SDS011;65096;50.998;7.098;2022-12-18T14:48:17;20.35;;;10.63;;
76284;SDS011;65096;50.998;7.098;2022-12-18T14:50:53;19.40;;;9.88;;
76284;SDS011;65096;50.998;7.098;2022-12-18T14:53:22;23.70;;;11.80;;
76284;SDS011;65096;50.998;7.098;2022-12-18T14:55:55;20.95;;;10.68;;
76284;SDS011;65096;50.998;7.098;2022-12-18T14:58:22;20.35;;;10.07;;
76284;SDS011;65096;50.998;7.098;2022-12-18T15:00:49;18.52;;;8.65;;
76284;SDS011;65096;50.998;7.098;2022-12-18T15:03:17;23.20;;;10.90;;
76284;SDS011;65096;50.998;7.098;2022-12-18T15:05:45;22.23;;;11.20;;
76284;SDS011;65096;50.998;7.098;2022-12-18T15:08:28;23.80;;;11.38;;
76284;SDS011;65096;50.998;7.098;2022-12-18T15:10:58;21.63;;;11.60;;
76284;SDS011;65096;50.998;7.098;2022-12-18T15:13:25;19.40;;;9.85;;
76284;SDS011;65096;50.998;7.098;2022-12-18T15:15:52;21.35;;;11.15;;
76284;SDS011;65096;50.998;7.098;2022-12-18T15:18:21;24.27;;;12.20;;
76284;SDS011;65096;50.998;7.098;2022-12-18T15:20:56;19.55;;;10.07;;
76284;SDS011;65096;50.998;7.098;2022-12-18T15:23:25;23.65;;;10.90;;
76284;SDS011;65096;50.998;7.098;2022-12-18T15:25:55;18.60;;;9.02;;
76284;SDS011;65096;50.998;7.098;2022-12-18T15:28:25;16.17;;;7.60;;
76284;SDS011;65096;50.998;7.098;2022-12-18T15:31:02;26.02;;;12.43;;
76284;SDS011;65096;50.998;7.098;2022-12-18T15:33:32;15.90;;;7.55;;
76284;SDS011;65096;50.998;7.098;2022-12-18T15:36:01;23.88;;;8.57;;
76284;SDS011;65096;50.998;7.098;2022-12-18T15:38:30;22.92;;;10.20;;
76284;SDS011;65096;50.998;7.098;2022-12-18T15:40:57;22.88;;;9.35;;
76284;SDS011;65096;50.998;7.098;2022-12-18T15:43:25;22.95;;;11.52;;
76284;SDS011;65096;50.998;7.098;2022-12-18T15:45:58;21.67;;;9.15;;
76284;SDS011;65096;50.998;7.098;2022-12-18T15:48:25;16.83;;;7.18;;
76284;SDS011;65096;50.998;7.098;2022-12-18T15:50:52;21.85;;;10.43;;
76284;SDS011;65096;50.998;7.098;2022-12-18T15:53:21;16.13;;;7.57;;
76284;SDS011;65096;50.998;7.098;2022-12-18T15:55:49;22.35;;;11.10;;
76284;SDS011;65096;50.998;7.098;2022-12-18T15:58:34;19.23;;;10.07;;
76284;SDS011;65096;50.998;7.098;2022-12-18T16:01:02;18.17;;;8.60;;
76284;SDS011;65096;50.998;7.098;2022-12-18T16:03:29;25.27;;;14.10;;
76284;SDS011;65096;50.998;7.098;2022-12-18T16:05:55;23.23;;;10.75;;
76284;SDS011;65096;50.998;7.098;2022-12-18T16:08:23;21.50;;;9.57;;
76284;SDS011;65096;50.998;7.098;2022-12-18T16:13:16;16.40;;;8.75;;
76284;SDS011;65096;50.998;7.098;2022-12-18T16:15:47;19.50;;;9.80;;
76284;SDS011;65096;50.998;7.098;2022-12-18T16:18:13;20.30;;;10.35;;
76284;SDS011;65096;50.998;7.098;2022-12-18T16:20:40;21.98;;;11.52;;